Time;durP1;ratioP1;P1;durP2;ratioP2;P2;SDS_P1;SDS_P2;PMS_P1;PMS_P2;Temp;Humidity;BMP_temperature;BMP_pressure;BME280_temperature;BME280_humidity;BME280_pressure;Samples;Min_cycle;Max_cycle;Signal;HPM_P1;HPM_P2
2021/11/07 00:02:31;;;;;;;1999.90;999.90;;;11.20;99.90;;;;;;5052886;28;20425;-69
2021/11/07 00:05:06;;;;;;;1999.90;999.90;;;11.30;99.90;;;;;;5052556;28;20925;-69
2021/11/07 00:12:48;;;;;;;1999.90;999.90;;;11.30;99.90;;;;;;5052531;28;20842;-71
2021/11/07 00:15:16;;;;;;;1999.90;999.90;;;11.30;99.90;;;;;;5052379;28;20535;-70
2021/11/07 00:17:48;;;;;;;1999.90;999.90;;;11.20;99.90;;;;;;5052539;28;20404;-69
2021/11/07 00:20:32;;;;;;;1999.90;999.90;;;11.20;99.90;;;;;;5052528;28;20463;-70
2021/11/07 00:25:39;;;;;;;1999.90;999.90;;;11.20;99.90;;;;;;5052169;28;20420;-71
2021/11/07 00:28:09;;;;;;;1999.90;999.90;;;11.20;99.90;;;;;;5052430;28;20465;-71
2021/11/07 00:30:45;;;;;;;1999.90;999.90;;;11.20;99.90;;;;;;5052141;28;20787;-71
2021/11/07 00:33:22;;;;;;;1999.90;999.90;;;11.30;99.90;;;;;;5052240;28;20855;-71
2021/11/07 00:36:05;;;;;;;1999.90;999.90;;;11.30;99.90;;;;;;5052119;28;20449;-71
2021/11/07 00:38:44;;;;;;;1999.90;999.90;;;11.30;99.90;;;;;;5051665;28;20404;-71
2021/11/07 00:41:21;;;;;;;1999.90;999.90;;;11.20;99.90;;;;;;5052111;28;21020;-71
2021/11/07 00:46:29;;;;;;;1999.90;999.90;;;11.20;99.90;;;;;;5052101;28;20786;-71
2021/11/07 00:49:08;;;;;;;1999.90;999.90;;;11.20;99.90;;;;;;5052086;28;20475;-71
2021/11/07 00:51:46;;;;;;;1999.90;999.90;;;11.20;99.90;;;;;;5051741;28;20453;-71
2021/11/07 00:56:51;;;;;;;1999.90;999.90;;;11.20;99.90;;;;;;5052085;28;20420;-69
2021/11/07 01:02:18;;;;;;;1999.90;999.90;;;11.20;99.90;;;;;;5052111;28;20508;-70
2021/11/07 01:04:48;;;;;;;1999.90;999.90;;;11.10;99.90;;;;;;5051595;28;20418;-70
2021/11/07 01:07:16;;;;;;;1999.90;999.90;;;11.10;99.90;;;;;;5051793;28;20424;-69
2021/11/07 01:09:42;;;;;;;1999.90;999.90;;;11.10;99.90;;;;;;5051287;28;20436;-70
2021/11/07 01:12:09;;;;;;;1999.90;999.90;;;11.10;99.90;;;;;;5051643;28;20433;-70
2021/11/07 01:14:35;;;;;;;1999.90;999.90;;;11.00;99.90;;;;;;5051493;28;20416;-69
2021/11/07 01:17:01;;;;;;;1999.90;999.90;;;11.00;99.90;;;;;;5051700;28;20433;-70
2021/11/07 01:19:27;;;;;;;1999.90;999.90;;;10.90;99.90;;;;;;5051701;28;20409;-70
2021/11/07 01:21:53;;;;;;;1999.90;999.90;;;11.00;99.90;;;;;;5051498;28;20433;-69
2021/11/07 01:24:27;;;;;;;1999.90;999.90;;;10.90;99.90;;;;;;5051401;28;20174;-71
2021/11/07 01:27:05;;;;;;;1999.90;999.90;;;10.90;99.90;;;;;;5051711;28;20631;-72
2021/11/07 01:29:36;;;;;;;1999.90;999.90;;;10.80;99.90;;;;;;5051654;28;20410;-71
2021/11/07 01:32:02;;;;;;;1999.90;999.90;;;10.80;99.90;;;;;;5051418;28;20855;-71
2021/11/07 01:34:52;;;;;;;1999.90;999.90;;;10.70;99.90;;;;;;5051268;28;20413;-71
2021/11/07 01:37:21;;;;;;;1999.90;999.90;;;10.70;99.90;;;;;;5051510;28;20408;-71
2021/11/07 01:40:03;;;;;;;1999.90;999.90;;;10.60;99.90;;;;;;5051529;28;20411;-71
2021/11/07 01:45:05;;;;;;;1999.90;999.90;;;10.50;99.90;;;;;;5051240;28;20425;-70
2021/11/07 01:47:32;;;;;;;1999.90;999.90;;;10.40;99.90;;;;;;5051711;28;20418;-70
2021/11/07 01:49:59;;;;;;;1999.90;999.90;;;10.40;99.90;;;;;;5051419;28;20905;-70
2021/11/07 01:52:26;;;;;;;1999.90;999.90;;;10.40;99.90;;;;;;5054325;28;20499;-70
2021/11/07 01:54:58;;;;;;;1999.90;999.90;;;10.40;99.90;;;;;;5054973;28;20413;-70
2021/11/07 01:57:29;;;;;;;1999.90;999.90;;;10.30;99.90;;;;;;5055161;28;20915;-70
2021/11/07 02:00:01;;;;;;;1999.90;999.90;;;10.20;99.90;;;;;;5055172;28;20407;-69
2021/11/07 02:02:30;;;;;;;1999.90;999.90;;;10.20;99.90;;;;;;5054991;28;20436;-70
2021/11/07 02:04:57;;;;;;;1999.90;999.90;;;10.20;99.90;;;;;;5054746;28;20410;-71
2021/11/07 02:07:23;;;;;;;1999.90;999.90;;;10.10;99.90;;;;;;5055002;28;20445;-70
2021/11/07 02:09:49;;;;;;;1999.90;999.90;;;10.10;99.90;;;;;;5054854;28;20415;-71
2021/11/07 02:12:16;;;;;;;1999.90;999.90;;;10.00;99.90;;;;;;5054706;28;20475;-72
2021/11/07 02:14:42;;;;;;;1999.90;999.90;;;10.00;99.90;;;;;;5054624;28;20487;-71
2021/11/07 02:17:09;;;;;;;1999.90;999.90;;;10.10;99.90;;;;;;5054835;28;20408;-71
2021/11/07 02:19:35;;;;;;;1999.90;999.90;;;10.00;99.90;;;;;;5054678;28;20451;-71
2021/11/07 02:22:02;;;;;;;1999.90;999.90;;;9.90;99.90;;;;;;5054644;28;20432;-71
2021/11/07 02:24:28;;;;;;;1999.90;999.90;;;9.90;99.90;;;;;;5054337;28;20487;-71
2021/11/07 02:26:57;;;;;;;1999.90;999.90;;;9.80;99.90;;;;;;5054588;28;20408;-72
2021/11/07 02:29:24;;;;;;;1999.90;999.90;;;9.80;99.90;;;;;;5054561;28;20914;-71
2021/11/07 02:31:52;;;;;;;1999.90;999.90;;;9.70;99.90;;;;;;5053190;28;20436;-70
2021/11/07 02:34:18;;;;;;;1999.90;999.90;;;9.70;99.90;;;;;;5054086;28;20467;-70
2021/11/07 02:36:45;;;;;;;1999.90;999.90;;;9.70;99.90;;;;;;5054358;28;20407;-69
2021/11/07 02:39:16;;;;;;;1999.90;999.90;;;9.70;99.90;;;;;;5054294;28;20427;-69
2021/11/07 02:41:46;;;;;;;1999.90;999.90;;;9.60;99.90;;;;;;5054225;28;20941;-70
2021/11/07 02:44:27;;;;;;;1999.90;999.90;;;9.70;99.90;;;;;;5053988;28;20442;-70
2021/11/07 02:46:53;;;;;;;1999.90;999.90;;;9.60;99.90;;;;;;5054355;28;20427;-70
2021/11/07 02:49:19;;;;;;;1999.90;999.90;;;9.70;99.90;;;;;;5054113;28;20408;-70
2021/11/07 02:51:45;;;;;;;1999.90;999.90;;;9.70;99.90;;;;;;5053965;28;20258;-69
2021/11/07 02:54:10;;;;;;;1999.90;999.90;;;9.70;99.90;;;;;;5053798;28;20280;-71
2021/11/07 02:56:36;;;;;;;1999.90;999.90;;;9.70;99.90;;;;;;5054019;28;20437;-71
2021/11/07 02:59:03;;;;;;;1999.90;999.90;;;9.80;99.90;;;;;;5054035;28;20243;-72
2021/11/07 03:01:29;;;;;;;1999.90;999.90;;;9.80;99.90;;;;;;5053513;28;20215;-71
2021/11/07 03:04:01;;;;;;;1999.90;999.90;;;9.70;99.90;;;;;;5053529;28;20458;-71
2021/11/07 03:06:32;;;;;;;1999.90;999.90;;;9.80;99.90;;;;;;5053984;28;20420;-71
2021/11/07 03:08:57;;;;;;;1999.90;999.90;;;9.80;99.90;;;;;;5053851;28;20423;-71
2021/11/07 03:11:23;;;;;;;1999.90;999.90;;;9.80;99.90;;;;;;5053711;28;20509;-71
2021/11/07 03:13:50;;;;;;;1999.90;999.90;;;9.90;99.90;;;;;;5053531;28;20206;-71
2021/11/07 03:16:16;;;;;;;1999.90;999.90;;;9.80;99.90;;;;;;5053613;28;20235;-71
2021/11/07 03:18:42;;;;;;;1999.90;999.90;;;9.80;99.90;;;;;;5053509;28;20411;-71
2021/11/07 03:21:14;;;;;;;1999.90;999.90;;;9.80;99.90;;;;;;5053602;28;20705;-71
2021/11/07 03:23:49;;;;;;;1999.90;999.90;;;9.80;99.90;;;;;;5053536;28;20476;-71
2021/11/07 03:26:16;;;;;;;1999.90;999.90;;;9.80;99.90;;;;;;5053338;28;20434;-73
2021/11/07 03:28:44;;;;;;;1999.90;999.90;;;9.90;99.90;;;;;;5053419;28;20439;-72
2021/11/07 03:31:13;;;;;;;1999.90;999.90;;;9.90;99.90;;;;;;5053299;28;20436;-71
2021/11/07 03:33:48;;;;;;;1999.90;999.90;;;10.00;99.90;;;;;;5053193;28;20469;-71
2021/11/07 03:36:18;;;;;;;1999.90;999.90;;;10.00;99.90;;;;;;5053208;28;20499;-71
2021/11/07 03:38:52;;;;;;;1999.90;999.90;;;10.00;99.90;;;;;;5053293;28;20442;-72
2021/11/07 03:41:18;;;;;;;1999.90;999.90;;;10.00;99.90;;;;;;5053178;28;20423;-71
2021/11/07 03:43:45;;;;;;;1999.90;999.90;;;10.00;99.90;;;;;;5053050;28;20414;-72
2021/11/07 03:46:11;;;;;;;1999.90;999.90;;;10.10;99.90;;;;;;5052891;28;20981;-72
2021/11/07 03:48:38;;;;;;;1999.90;999.90;;;10.10;99.90;;;;;;5053090;28;20488;-71
2021/11/07 03:51:06;;;;;;;1999.90;999.90;;;10.10;99.90;;;;;;5052810;28;20448;-70
2021/11/07 03:53:31;;;;;;;1999.90;999.90;;;10.10;99.90;;;;;;5052920;28;20455;-70
2021/11/07 03:55:57;;;;;;;1999.90;999.90;;;10.10;99.90;;;;;;5052663;28;20407;-71
2021/11/07 03:58:23;;;;;;;1999.90;999.90;;;10.20;99.90;;;;;;5052874;28;20635;-69
2021/11/07 04:00:49;;;;;;;1999.90;999.90;;;10.10;99.90;;;;;;5052784;28;20176;-69
2021/11/07 04:03:15;;;;;;;1999.90;999.90;;;10.20;99.90;;;;;;5052803;28;21135;-69
2021/11/07 04:05:40;;;;;;;1999.90;999.90;;;10.10;99.90;;;;;;5052545;28;20445;-69
2021/11/07 04:08:07;;;;;;;1999.90;999.90;;;10.10;99.90;;;;;;5052708;28;20410;-70
2021/11/07 04:10:34;;;;;;;1999.90;999.90;;;10.10;99.90;;;;;;5052703;28;20264;-70
2021/11/07 04:13:00;;;;;;;1999.90;999.90;;;10.10;99.90;;;;;;5052119;28;20456;-70
2021/11/07 04:15:25;;;;;;;1999.90;999.90;;;10.10;99.90;;;;;;5051974;28;20408;-71
2021/11/07 04:17:51;;;;;;;1999.90;999.90;;;10.10;99.90;;;;;;5052475;28;20233;-70
2021/11/07 04:20:17;;;;;;;1999.90;999.90;;;10.20;99.90;;;;;;5052503;28;20407;-70
2021/11/07 04:22:43;;;;;;;1999.90;999.90;;;10.20;99.90;;;;;;5052386;28;20205;-70
2021/11/07 04:25:09;;;;;;;1999.90;999.90;;;10.20;99.90;;;;;;5052193;28;20412;-70
2021/11/07 04:27:35;;;;;;;1999.90;999.90;;;10.20;99.90;;;;;;5052410;28;20197;-69
2021/11/07 04:30:03;;;;;;;1999.90;999.90;;;10.20;99.90;;;;;;5051065;28;20424;-70
2021/11/07 04:32:28;;;;;;;1999.90;999.90;;;10.30;99.90;;;;;;5051919;28;20460;-70
2021/11/07 04:34:54;;;;;;;1999.90;999.90;;;10.30;99.90;;;;;;5051980;28;20445;-70
2021/11/07 04:37:21;;;;;;;1999.90;999.90;;;10.30;99.90;;;;;;5052261;28;20647;-69
2021/11/07 04:39:46;;;;;;;1999.90;999.90;;;10.30;99.90;;;;;;5052105;28;20166;-70
2021/11/07 04:42:13;;;;;;;1999.90;999.90;;;10.40;99.90;;;;;;5052030;28;20454;-70
2021/11/07 04:44:38;;;;;;;1999.90;999.90;;;10.40;99.90;;;;;;5051900;28;20261;-70
2021/11/07 04:47:04;;;;;;;1999.90;999.90;;;10.30;99.90;;;;;;5052071;28;20510;-70
2021/11/07 04:49:30;;;;;;;1999.90;999.90;;;10.30;99.90;;;;;;5052033;28;20168;-71
2021/11/07 04:51:56;;;;;;;1999.90;999.90;;;10.40;99.90;;;;;;5051816;28;20452;-71
2021/11/07 04:54:22;;;;;;;1999.90;999.90;;;10.40;99.90;;;;;;5060913;22;20241;-71
2021/11/07 04:56:48;;;;;;;1999.90;999.90;;;10.40;99.90;;;;;;5012369;28;20398;-71
2021/11/07 04:59:14;;;;;;;1999.90;999.90;;;10.40;99.90;;;;;;5012388;28;20401;-69
2021/11/07 05:01:40;;;;;;;1999.90;999.90;;;10.50;99.90;;;;;;5012314;28;20166;-72
2021/11/07 05:04:07;;;;;;;1999.90;999.90;;;10.50;99.90;;;;;;5012060;28;20769;-70
2021/11/07 05:06:34;;;;;;;1999.90;999.90;;;10.50;99.90;;;;;;5012316;28;20246;-71
2021/11/07 05:08:59;;;;;;;1999.90;999.90;;;10.50;99.90;;;;;;5012134;28;20406;-71
2021/11/07 05:11:25;;;;;;;1999.90;999.90;;;10.50;99.90;;;;;;5012198;28;20488;-71
2021/11/07 05:13:52;;;;;;;1999.90;999.90;;;10.50;99.90;;;;;;5012250;28;20240;-73
2021/11/07 05:16:18;;;;;;;1999.90;999.90;;;10.50;99.90;;;;;;5011959;28;20162;-73
2021/11/07 05:18:44;;;;;;;1999.90;999.90;;;10.50;99.90;;;;;;5012663;28;20422;-73
2021/11/07 05:21:10;;;;;;;1999.90;999.90;;;10.60;99.90;;;;;;5012759;28;20914;-73
2021/11/07 05:23:36;;;;;;;1999.90;999.90;;;10.60;99.90;;;;;;5012370;28;20507;-74
2021/11/07 05:26:02;;;;;;;1999.90;999.90;;;10.60;99.90;;;;;;5014998;28;20418;-73
2021/11/07 05:28:28;;;;;;;1999.90;999.90;;;10.60;99.90;;;;;;5016439;28;20420;-74
2021/11/07 05:30:54;;;;;;;1999.90;999.90;;;10.60;99.90;;;;;;5016451;28;20214;-73
2021/11/07 05:33:20;;;;;;;1999.90;999.90;;;10.60;99.90;;;;;;5016454;28;20647;-73
2021/11/07 05:35:46;;;;;;;1999.90;999.90;;;10.60;99.90;;;;;;5016485;28;20527;-74
2021/11/07 05:38:11;;;;;;;1999.90;999.90;;;10.60;99.90;;;;;;5016329;28;20663;-71
2021/11/07 05:40:37;;;;;;;1999.90;999.90;;;10.70;99.90;;;;;;5016272;28;20180;-73
2021/11/07 05:43:03;;;;;;;1999.90;999.90;;;10.60;99.90;;;;;;5015888;28;20520;-74
2021/11/07 05:45:29;;;;;;;1999.90;999.90;;;10.70;99.90;;;;;;5015717;28;20243;-73
2021/11/07 05:47:55;;;;;;;1999.90;999.90;;;10.60;99.90;;;;;;5015840;28;20415;-74
2021/11/07 05:50:22;;;;;;;1999.90;999.90;;;10.60;99.90;;;;;;5016241;28;20205;-74
2021/11/07 05:52:49;;;;;;;1999.90;999.90;;;10.60;99.90;;;;;;5015422;28;20246;-73
2021/11/07 05:55:14;;;;;;;1999.90;999.90;;;10.60;99.90;;;;;;5015647;28;20413;-73
2021/11/07 05:57:41;;;;;;;1999.90;999.90;;;10.70;99.90;;;;;;5015696;28;20413;-73
2021/11/07 06:00:08;;;;;;;1999.90;999.90;;;10.70;99.90;;;;;;5015809;28;20713;-74
2021/11/07 06:02:34;;;;;;;1999.90;999.90;;;10.70;99.90;;;;;;5015573;28;20468;-73
2021/11/07 06:05:00;;;;;;;1999.90;999.90;;;10.70;99.90;;;;;;5015256;28;20411;-74
2021/11/07 06:07:25;;;;;;;1999.90;999.90;;;10.70;99.90;;;;;;5015572;28;20174;-74
2021/11/07 06:09:51;;;;;;;1999.90;999.90;;;10.70;99.90;;;;;;5015961;28;20186;-73
2021/11/07 06:12:16;;;;;;;1999.90;999.90;;;10.70;99.90;;;;;;5015581;28;20254;-73
2021/11/07 06:14:44;;;;;;;1999.90;999.90;;;10.70;99.90;;;;;;5015753;28;20239;-73
2021/11/07 06:17:10;;;;;;;1999.90;999.90;;;10.70;99.90;;;;;;5015867;28;20175;-73
2021/11/07 06:19:36;;;;;;;1999.90;999.90;;;10.70;99.90;;;;;;5015315;28;20613;-73
2021/11/07 06:22:02;;;;;;;1999.90;999.90;;;10.70;99.90;;;;;;5015331;28;20416;-73
2021/11/07 06:24:29;;;;;;;1999.90;999.90;;;10.70;99.90;;;;;;5015331;28;20664;-74
2021/11/07 06:26:57;;;;;;;1999.90;999.90;;;10.80;99.90;;;;;;5015472;28;20430;-73
2021/11/07 06:29:24;;;;;;;1999.90;999.90;;;10.90;99.90;;;;;;5015319;28;20865;-72
2021/11/07 06:31:51;;;;;;;1999.90;999.90;;;10.90;99.90;;;;;;5015165;28;20541;-73
2021/11/07 06:34:18;;;;;;;1999.90;999.90;;;10.90;99.90;;;;;;5014694;28;20461;-73
2021/11/07 06:36:44;;;;;;;1999.90;999.90;;;10.80;99.90;;;;;;5014274;28;20494;-74
2021/11/07 06:39:09;;;;;;;1999.90;999.90;;;10.90;99.90;;;;;;5014859;28;20410;-73
2021/11/07 06:41:35;;;;;;;1999.90;999.90;;;10.90;99.90;;;;;;5015003;28;20173;-73
2021/11/07 06:44:01;;;;;;;1999.90;999.90;;;10.90;99.90;;;;;;5014726;28;20197;-74
2021/11/07 06:46:27;;;;;;;1999.90;999.90;;;10.90;99.90;;;;;;5014595;28;20172;-73
2021/11/07 06:48:53;;;;;;;1999.90;999.90;;;10.90;99.90;;;;;;5015182;28;20499;-74
2021/11/07 06:51:21;;;;;;;1999.90;999.90;;;10.90;99.90;;;;;;5015143;28;20408;-73
2021/11/07 06:53:48;;;;;;;1999.90;999.90;;;10.90;99.90;;;;;;5014823;28;20545;-74
2021/11/07 06:56:14;;;;;;;1999.90;999.90;;;10.90;99.90;;;;;;5014612;28;20466;-72
2021/11/07 06:58:41;;;;;;;1999.90;999.90;;;11.00;99.90;;;;;;5014674;28;20407;-73
2021/11/07 07:01:07;;;;;;;1999.90;999.90;;;10.90;99.90;;;;;;5014808;28;20400;-73
2021/11/07 07:03:32;;;;;;;1999.90;999.90;;;10.90;99.90;;;;;;5014454;28;20427;-73
2021/11/07 07:05:58;;;;;;;1999.90;999.90;;;11.00;99.90;;;;;;5014122;28;20965;-72
2021/11/07 07:08:28;;;;;;;1999.90;999.90;;;10.90;99.90;;;;;;5014325;28;20169;-75
2021/11/07 07:10:59;;;;;;;1999.90;999.90;;;10.90;99.90;;;;;;5014408;28;20767;-75
2021/11/07 07:13:39;;;;;;;1999.90;999.90;;;11.00;99.90;;;;;;5014072;28;20462;-75
2021/11/07 07:34:23;;;;;;;1999.90;999.90;;;10.40;99.90;;;;;;5013368;28;20500;-76
2021/11/07 07:36:49;;;;;;;1999.90;999.90;;;10.40;99.90;;;;;;5013654;28;20231;-70
2021/11/07 07:39:15;;;;;;;1999.90;999.90;;;10.40;99.90;;;;;;5013555;28;20453;-69
2021/11/07 07:41:41;;;;;;;1999.90;999.90;;;10.50;99.90;;;;;;5013564;28;20410;-70
2021/11/07 07:44:08;;;;;;;1999.90;999.90;;;10.40;99.90;;;;;;5013492;28;20241;-70
2021/11/07 07:46:40;;;;;;;1999.90;999.90;;;10.40;99.90;;;;;;5013328;28;20464;-70
2021/11/07 07:49:06;;;;;;;1999.90;999.90;;;10.40;99.90;;;;;;5013469;28;20480;-70
2021/11/07 07:51:32;;;;;;;1999.90;999.90;;;10.40;99.90;;;;;;5013379;28;20908;-71
2021/11/07 07:54:00;;;;;;;1999.90;999.90;;;10.40;99.90;;;;;;5013202;28;20703;-71
2021/11/07 07:56:26;;;;;;;1999.90;999.90;;;10.40;99.90;;;;;;5013108;28;20159;-70
2021/11/07 07:58:52;;;;;;;1999.90;999.90;;;10.40;99.90;;;;;;5013206;28;20410;-71
2021/11/07 08:01:18;;;;;;;1999.90;999.90;;;10.50;99.90;;;;;;5013206;28;20173;-71
2021/11/07 08:03:43;;;;;;;1999.90;999.90;;;10.50;99.90;;;;;;5013047;28;20428;-71
2021/11/07 08:06:09;;;;;;;1999.90;999.90;;;10.60;99.90;;;;;;5012886;28;20660;-71
2021/11/07 08:08:35;;;;;;;1999.90;999.90;;;10.60;99.90;;;;;;5013102;28;20171;-72
2021/11/07 08:11:01;;;;;;;1999.90;999.90;;;10.70;99.90;;;;;;5013070;28;20492;-72
2021/11/07 08:13:27;;;;;;;1999.90;999.90;;;10.70;99.90;;;;;;5012895;28;20542;-72
2021/11/07 08:15:53;;;;;;;1999.90;999.90;;;10.70;99.90;;;;;;5012776;28;20413;-72
2021/11/07 08:18:20;;;;;;;1999.90;999.90;;;10.80;99.90;;;;;;5012924;28;20407;-73
2021/11/07 08:20:47;;;;;;;1999.90;999.90;;;10.80;99.90;;;;;;5012821;28;20888;-72
2021/11/07 08:23:13;;;;;;;1999.90;999.90;;;10.90;99.90;;;;;;5012769;28;20424;-73
2021/11/07 08:25:39;;;;;;;1999.90;999.90;;;10.90;99.90;;;;;;5012733;28;20442;-73
2021/11/07 08:28:06;;;;;;;1999.90;999.90;;;10.90;99.90;;;;;;5012811;28;20838;-73
2021/11/07 08:30:37;;;;;;;1999.90;999.90;;;11.00;99.90;;;;;;5012648;28;20414;-73
2021/11/07 08:33:04;;;;;;;1999.90;999.90;;;11.00;99.90;;;;;;5012493;28;20554;-73
2021/11/07 08:35:29;;;;;;;1999.90;999.90;;;11.10;99.90;;;;;;5012392;28;20403;-73
2021/11/07 08:38:01;;;;;;;1999.90;999.90;;;11.10;99.90;;;;;;5012788;28;20946;-73
2021/11/07 08:40:38;;;;;;;1999.90;999.90;;;11.10;99.90;;;;;;5012699;28;20184;-73
2021/11/07 08:54:18;;;;;;;1999.90;999.90;;;11.10;99.90;;;;;;5012488;28;20833;-73
2021/11/07 09:00:14;;;;;;;1999.90;999.90;;;11.20;99.90;;;;;;5012112;28;20469;-73
2021/11/07 09:02:58;;;;;;;1999.90;999.90;;;11.20;99.90;;;;;;5012203;28;20919;-74
2021/11/07 09:05:32;;;;;;;1999.90;999.90;;;11.20;99.90;;;;;;5012211;28;20510;-74
2021/11/07 09:10:35;;;;;;;1999.90;999.90;;;11.30;99.90;;;;;;5012211;28;21027;-74
2021/11/07 09:13:03;;;;;;;1999.90;999.90;;;11.30;99.90;;;;;;5012058;28;20461;-73
2021/11/07 09:15:34;;;;;;;1999.90;999.90;;;11.40;99.90;;;;;;5012112;28;20587;-74
2021/11/07 09:18:00;;;;;;;1999.90;999.90;;;11.30;99.90;;;;;;5012234;28;20407;-74
2021/11/07 09:20:39;;;;;;;1999.90;999.90;;;11.40;99.90;;;;;;5012189;28;20414;-73
2021/11/07 09:23:15;;;;;;;1999.90;999.90;;;11.40;99.90;;;;;;5011970;28;20439;-73
2021/11/07 09:28:27;;;;;;;1999.90;999.90;;;11.50;99.90;;;;;;5012272;28;20415;-74
2021/11/07 09:34:04;;;;;;;1999.90;999.90;;;11.60;99.90;;;;;;5011863;28;20549;-74
2021/11/07 09:39:49;;;;;;;1999.90;999.90;;;11.70;99.90;;;;;;4999854;28;20811;-74
2021/11/07 09:42:29;;;;;;;1999.90;999.90;;;11.70;99.90;;;;;;5012130;28;20510;-74
2021/11/07 09:45:07;;;;;;;1999.90;999.90;;;11.70;99.90;;;;;;5011798;28;20410;-74
2021/11/07 09:47:36;;;;;;;1999.90;999.90;;;11.80;99.90;;;;;;5011925;28;20434;-74
2021/11/07 09:50:04;;;;;;;1999.90;999.90;;;11.80;99.90;;;;;;5011906;28;20944;-74
2021/11/07 09:52:36;;;;;;;1999.90;999.90;;;11.90;99.90;;;;;;5011565;28;20473;-73
2021/11/07 09:55:04;;;;;;;1999.90;999.90;;;12.00;99.90;;;;;;5011727;28;20474;-74
2021/11/07 09:57:30;;;;;;;1999.90;999.90;;;12.10;99.90;;;;;;5011701;28;20419;-74
2021/11/07 09:59:59;;;;;;;1999.90;999.90;;;12.20;99.90;;;;;;5011815;28;20465;-74
2021/11/07 10:02:28;;;;;;;1999.90;999.90;;;12.30;99.90;;;;;;5011723;28;20231;-74
2021/11/07 10:04:56;;;;;;;1999.90;999.90;;;12.40;99.90;;;;;;5011424;28;20416;-74
2021/11/07 10:07:26;;;;;;;1999.90;999.90;;;12.40;99.90;;;;;;5011951;28;20487;-75
2021/11/07 10:09:56;;;;;;;1999.90;999.90;;;12.50;99.90;;;;;;5011614;28;20414;-73
2021/11/07 10:12:34;;;;;;;1999.90;999.90;;;12.50;99.90;;;;;;5012975;28;20466;-74
2021/11/07 10:15:04;;;;;;;1999.90;999.90;;;12.50;99.90;;;;;;5010647;28;20912;-71
2021/11/07 10:20:34;;;;;;;1999.90;999.90;;;12.30;99.90;;;;;;5013680;28;20448;-73
2021/11/07 10:23:11;;;;;;;1999.90;999.90;;;12.10;99.90;;;;;;5012791;28;20457;-73
2021/11/07 10:25:46;;;;;;;1999.90;999.90;;;11.90;99.90;;;;;;5013166;28;20473;-72
2021/11/07 10:28:17;;;;;;;1999.90;999.90;;;11.80;99.90;;;;;;5013283;28;20421;-74
2021/11/07 10:30:47;;;;;;;1999.90;999.90;;;11.70;99.90;;;;;;5011444;28;20426;-73
2021/11/07 10:33:35;;;;;;;1999.90;999.90;;;11.70;99.90;;;;;;5012323;28;20470;-74
2021/11/07 10:52:44;;;;;;;1999.90;999.90;;;11.60;99.90;;;;;;5010268;28;20500;-71
2021/11/07 10:55:25;;;;;;;1999.90;999.90;;;11.50;99.90;;;;;;5011735;28;20430;-73
2021/11/07 10:57:56;;;;;;;1999.90;999.90;;;11.50;99.90;;;;;;5012115;28;20884;-73
2021/11/07 11:00:35;;;;;;;1999.90;999.90;;;11.50;99.90;;;;;;5011903;28;20411;-73
2021/11/07 11:03:08;;;;;;;1999.90;999.90;;;11.70;99.90;;;;;;5011919;28;20441;-73
2021/11/07 11:05:58;;;;;;;1999.90;999.90;;;11.90;99.90;;;;;;5012033;28;20418;-72
2021/11/07 11:08:34;;;;;;;1999.90;999.90;;;12.10;99.90;;;;;;5011168;28;20474;-74
2021/11/07 11:11:34;;;;;;;1999.90;999.90;;;12.30;99.90;;;;;;5010836;28;21025;-73
2021/11/07 11:22:36;;;;;;;1999.90;999.90;;;12.40;99.90;;;;;;5011118;28;20400;-74
2021/11/07 11:25:31;;;;;;;1999.90;999.90;;;12.40;99.90;;;;;;5011461;28;20425;-74
2021/11/07 11:28:09;;;;;;;1999.90;999.90;;;12.40;99.90;;;;;;5011870;28;20426;-74
2021/11/07 11:30:53;;;;;;;1999.90;999.90;;;12.40;99.90;;;;;;5011304;28;20403;-74
2021/11/07 11:41:08;;;;;;;1999.90;999.90;;;12.00;99.90;;;;;;5011564;28;20911;-75
2021/11/07 11:43:41;;;;;;;1999.90;999.90;;;12.40;99.90;;;;;;5010642;28;20430;-74
2021/11/07 11:46:20;;;;;;;1999.90;999.90;;;12.80;99.90;;;;;;5011023;28;20861;-74
2021/11/07 12:03:22;;;;;;;1999.90;999.90;;;15.40;99.90;;;;;;5010957;28;20419;-74
2021/11/07 12:05:55;;;;;;;1999.90;999.90;;;14.80;99.90;;;;;;5010145;28;20474;-74
2021/11/07 12:08:29;;;;;;;1999.90;999.90;;;14.30;99.90;;;;;;5011339;28;20423;-74
2021/11/07 12:11:16;;;;;;;1999.90;999.90;;;14.20;99.90;;;;;;5011227;28;20414;-74
2021/11/07 12:13:55;;;;;;;1999.90;999.90;;;13.70;99.90;;;;;;5010495;28;20463;-74
2021/11/07 12:16:43;;;;;;;1999.90;999.90;;;13.50;99.90;;;;;;5010825;28;20403;-75
2021/11/07 12:19:11;;;;;;;1999.90;999.90;;;14.00;99.90;;;;;;5011017;28;20408;-74
2021/11/07 12:21:51;;;;;;;1999.90;999.90;;;14.20;99.90;;;;;;5010591;28;20502;-74
2021/11/07 12:24:19;;;;;;;1999.90;999.90;;;14.70;99.90;;;;;;5010676;28;20427;-74
2021/11/07 12:26:45;;;;;;;1999.90;999.90;;;14.60;99.90;;;;;;5010682;28;20404;-74
2021/11/07 12:29:12;;;;;;;1999.90;999.90;;;14.20;99.90;;;;;;5010385;28;20936;-74
2021/11/07 12:32:03;;;;;;;1999.90;999.90;;;14.50;99.90;;;;;;5010988;28;20417;-74
2021/11/07 12:34:55;;;;;;;1999.90;999.90;;;15.00;99.90;;;;;;5010049;28;20465;-74
2021/11/07 12:40:42;;;;;;;1999.90;999.90;;;14.20;99.90;;;;;;5010735;28;20767;-74
2021/11/07 12:43:14;;;;;;;1999.90;999.90;;;13.90;99.90;;;;;;5009633;28;20428;-74
2021/11/07 12:45:45;;;;;;;1999.90;999.90;;;13.90;99.90;;;;;;5009999;28;20415;-74
2021/11/07 12:48:14;;;;;;;1999.90;999.90;;;13.90;99.90;;;;;;5010591;28;20917;-74
2021/11/07 12:50:59;;;;;;;1999.90;999.90;;;13.60;99.90;;;;;;5010171;28;20435;-74
2021/11/07 12:53:29;;;;;;;1999.90;999.90;;;13.40;99.90;;;;;;5010263;28;20482;-74
2021/11/07 12:55:55;;;;;;;1999.90;999.90;;;13.20;99.90;;;;;;5010284;28;20828;-74
2021/11/07 12:58:21;;;;;;;1999.90;999.90;;;13.00;99.90;;;;;;5009967;28;20817;-74
2021/11/07 13:00:49;;;;;;;1999.90;999.90;;;12.80;99.90;;;;;;5010559;28;20422;-74
2021/11/07 13:03:17;;;;;;;1999.90;999.90;;;12.60;99.90;;;;;;5009670;28;20467;-74
2021/11/07 13:05:44;;;;;;;1999.90;999.90;;;12.50;99.90;;;;;;5009453;28;20454;-74
2021/11/07 13:11:03;;;;;;;1999.90;999.90;;;12.40;99.90;;;;;;5010404;28;20411;-74
2021/11/07 13:21:27;;;;;;;1999.90;999.90;;;12.20;99.90;;;;;;5009853;28;20765;-74
2021/11/07 13:27:03;;;;;;;1999.90;999.90;;;12.30;99.90;;;;;;5009478;28;20418;-74
2021/11/07 13:35:20;;;;;;;1999.90;999.90;;;12.50;99.90;;;;;;5009609;28;20416;-73
2021/11/07 13:38:14;;;;;;;1999.90;999.90;;;12.40;99.90;;;;;;5010164;28;20495;-74
2021/11/07 13:40:41;;;;;;;1999.90;999.90;;;12.40;99.90;;;;;;5010125;28;20450;-73
2021/11/07 13:43:18;;;;;;;1999.90;999.90;;;12.50;99.90;;;;;;5009060;28;20458;-74
2021/11/07 13:45:48;;;;;;;1999.90;999.90;;;12.60;99.90;;;;;;5010014;28;20415;-74
2021/11/07 13:48:24;;;;;;;1999.90;999.90;;;12.50;99.90;;;;;;5013722;28;20411;-75
2021/11/07 13:50:53;;;;;;;1999.90;999.90;;;12.80;99.90;;;;;;5013383;28;20396;-73
2021/11/07 13:53:26;;;;;;;1999.90;999.90;;;13.70;99.90;;;;;;5013541;28;20830;-73
2021/11/07 13:55:54;;;;;;;1999.90;999.90;;;14.50;99.90;;;;;;5013653;28;20401;-74
2021/11/07 13:58:26;;;;;;;1999.90;999.90;;;15.20;99.90;;;;;;5013095;28;20475;-75
2021/11/07 14:00:56;;;;;;;1999.90;999.90;;;15.40;99.90;;;;;;5013554;28;20409;-74
2021/11/07 14:03:23;;;;;;;1999.90;999.90;;;15.20;99.90;;;;;;5013340;28;20424;-72
2021/11/07 14:06:06;;;;;;;1999.90;999.90;;;15.30;99.90;;;;;;5012503;28;20411;-74
2021/11/07 14:08:50;;;;;;;1999.90;999.90;;;14.50;99.90;;;;;;5012891;28;20405;-74
2021/11/07 14:11:21;;;;;;;1999.90;999.90;;;13.90;99.90;;;;;;5013031;28;20989;-75
2021/11/07 14:13:53;;;;;;;1999.90;999.90;;;13.60;99.90;;;;;;5012059;28;20468;-74
2021/11/07 14:16:37;;;;;;;1999.90;999.90;;;13.80;99.90;;;;;;5013137;28;20466;-74
2021/11/07 14:19:11;;;;;;;1999.90;999.90;;;13.90;99.90;;;;;;5012419;28;20412;-72
2021/11/07 14:21:42;;;;;;;1999.90;999.90;;;14.20;99.90;;;;;;5012749;28;20428;-74
2021/11/07 14:32:15;;;;;;;1999.90;999.90;;;15.30;99.90;;;;;;5012733;28;20502;-71
2021/11/07 14:40:20;;;;;;;1999.90;999.90;;;15.10;99.90;;;;;;5002212;28;20424;-72
2021/11/07 14:43:02;;;;;;;1999.90;999.90;;;14.90;99.90;;;;;;5011865;28;20411;-73
2021/11/07 14:51:53;;;;;;;1999.90;999.90;;;13.30;99.90;;;;;;5012014;28;20963;-73